Merrimack River @ Franklin Jct, Nh

Merrimack River at Franklin Junction
 Total Drainage Area: 1,507 sq. miles 
 Drainage Area Controlled by Corps Dams: 1,000 sq. miles (66%) 
 Warning Flow/Stage: 15,900 cfs / 13.0 feet 
 Flood Flow/Stage: 18,100 cfs / 14.0 feet 
Date Time
(Eastern)
Stage
(ft)
Flow
(cfs)
CSM
(cfs / sq. mi.)
Jun-25 01:15 am 6.65 3,877 2.6
Jun-25 12:15 am 6.69 3,939 2.6
Jun-24 11:15 pm 6.75 4,032 2.7
Jun-24 10:15 pm 6.81 4,125 2.7
Jun-24 09:15 pm 6.85 4,188 2.8
Jun-24 08:15 pm 6.68 3,923 2.6
Jun-24 07:15 pm 6.92 4,298 2.9
Jun-24 06:15 pm 6.96 4,361 2.9
Jun-24 05:15 pm 6.76 4,047 2.7
Jun-24 04:15 pm 6.76 4,047 2.7
Jun-24 03:15 pm 6.97 4,377 2.9
Jun-24 02:15 pm 7.04 4,488 3.0
Jun-24 01:15 pm 6.67 3,908 2.6
Jun-24 12:15 pm 7.07 4,536 3.0
Jun-24 11:15 am 6.60 3,800 2.5
Jun-24 10:15 am 6.58 3,770 2.5
Jun-24 09:15 am 6.71 3,970 2.6
Jun-24 08:15 am 6.58 3,770 2.5
Jun-24 07:15 am 6.26 3,289 2.2
Jun-24 06:15 am 6.25 3,274 2.2
Jun-24 05:15 am 6.25 3,274 2.2
Jun-24 04:15 am 6.17 3,157 2.1
Jun-24 03:15 am 5.86 2,707 1.8
Jun-24 02:15 am 6.14 3,113 2.1
Jun-24 01:15 am 5.59 2,321 1.5
Report Generated June 25, 2024 05:26 am